sensor_id;sensor_type;location;lat;lon;timestamp;pressure;altitude;pressure_sealevel;temperature;humidity
62634;BME280;48704;50.534;6.442;2023-01-30T00:01:31;95835.31;;;-0.70;100.00
62634;BME280;48704;50.534;6.442;2023-01-30T00:03:58;95826.69;;;-0.64;100.00
62634;BME280;48704;50.534;6.442;2023-01-30T00:06:23;95825.09;;;-0.58;100.00
62634;BME280;48704;50.534;6.442;2023-01-30T00:08:49;95809.84;;;-0.59;100.00
62634;BME280;48704;50.534;6.442;2023-01-30T00:11:16;95815.72;;;-0.64;100.00
62634;BME280;48704;50.534;6.442;2023-01-30T00:13:42;95823.91;;;-0.54;100.00
62634;BME280;48704;50.534;6.442;2023-01-30T00:16:09;95813.34;;;-0.55;100.00
62634;BME280;48704;50.534;6.442;2023-01-30T00:18:35;95814.13;;;-0.58;100.00
62634;BME280;48704;50.534;6.442;2023-01-30T00:21:03;95807.13;;;-0.63;100.00
62634;BME280;48704;50.534;6.442;2023-01-30T00:23:31;95806.31;;;-0.56;100.00
62634;BME280;48704;50.534;6.442;2023-01-30T00:25:57;95804.34;;;-0.56;100.00
62634;BME280;48704;50.534;6.442;2023-01-30T00:28:22;95807.88;;;-0.55;100.00
62634;BME280;48704;50.534;6.442;2023-01-30T00:30:52;95782.81;;;-0.50;100.00
62634;BME280;48704;50.534;6.442;2023-01-30T00:33:19;95762.47;;;-0.49;100.00
62634;BME280;48704;50.534;6.442;2023-01-30T00:35:49;95760.13;;;-0.47;100.00
62634;BME280;48704;50.534;6.442;2023-01-30T00:38:15;95762.47;;;-0.46;100.00
62634;BME280;48704;50.534;6.442;2023-01-30T00:40:42;95750.72;;;-0.46;100.00
62634;BME280;48704;50.534;6.442;2023-01-30T00:43:13;95737.44;;;-0.48;100.00
62634;BME280;48704;50.534;6.442;2023-01-30T00:45:57;95753.06;;;-0.45;100.00
62634;BME280;48704;50.534;6.442;2023-01-30T00:48:42;95745.25;;;-0.46;100.00
62634;BME280;48704;50.534;6.442;2023-01-30T00:51:08;95728.81;;;-0.46;100.00
62634;BME280;48704;50.534;6.442;2023-01-30T00:53:33;95728.06;;;-0.50;100.00
62634;BME280;48704;50.534;6.442;2023-01-30T00:55:59;95724.91;;;-0.45;100.00
62634;BME280;48704;50.534;6.442;2023-01-30T00:58:24;95742.91;;;-0.44;100.00
62634;BME280;48704;50.534;6.442;2023-01-30T01:00:50;95738.56;;;-0.42;100.00
62634;BME280;48704;50.534;6.442;2023-01-30T01:03:16;95731.88;;;-0.37;100.00
62634;BME280;48704;50.534;6.442;2023-01-30T01:05:42;95726.38;;;-0.37;100.00
62634;BME280;48704;50.534;6.442;2023-01-30T01:08:08;95726.03;;;-0.39;100.00
62634;BME280;48704;50.534;6.442;2023-01-30T01:10:33;95724.09;;;-0.39;100.00
62634;BME280;48704;50.534;6.442;2023-01-30T01:12:58;95712.34;;;-0.39;100.00
62634;BME280;48704;50.534;6.442;2023-01-30T01:15:25;95697.47;;;-0.38;100.00
62634;BME280;48704;50.534;6.442;2023-01-30T01:17:51;95689.28;;;-0.38;100.00
62634;BME280;48704;50.534;6.442;2023-01-30T01:20:18;95683.38;;;-0.37;100.00
62634;BME280;48704;50.534;6.442;2023-01-30T01:22:44;95682.59;;;-0.37;100.00
62634;BME280;48704;50.534;6.442;2023-01-30T01:25:10;95663.84;;;-0.39;100.00
62634;BME280;48704;50.534;6.442;2023-01-30T01:27:36;95695.53;;;-0.38;100.00
62634;BME280;48704;50.534;6.442;2023-01-30T01:30:03;95695.09;;;-0.36;100.00
62634;BME280;48704;50.534;6.442;2023-01-30T01:32:29;95695.84;;;-0.32;100.00
62634;BME280;48704;50.534;6.442;2023-01-30T01:34:55;95698.97;;;-0.34;100.00
62634;BME280;48704;50.534;6.442;2023-01-30T01:37:20;95694.28;;;-0.33;100.00
62634;BME280;48704;50.534;6.442;2023-01-30T01:39:46;95686.84;;;-0.32;100.00
62634;BME280;48704;50.534;6.442;2023-01-30T01:42:33;95684.13;;;-0.32;100.00
62634;BME280;48704;50.534;6.442;2023-01-30T01:47:33;95685.25;;;-0.30;100.00
62634;BME280;48704;50.534;6.442;2023-01-30T01:49:59;95678.97;;;-0.27;100.00
62634;BME280;48704;50.534;6.442;2023-01-30T01:52:25;95687.59;;;-0.28;100.00
62634;BME280;48704;50.534;6.442;2023-01-30T01:54:54;95712.63;;;-0.26;100.00
62634;BME280;48704;50.534;6.442;2023-01-30T01:57:31;95698.91;;;-0.23;100.00
62634;BME280;48704;50.534;6.442;2023-01-30T02:00:09;95724.69;;;-0.20;100.00
62634;BME280;48704;50.534;6.442;2023-01-30T02:02:37;95693.78;;;-0.21;100.00
62634;BME280;48704;50.534;6.442;2023-01-30T02:05:03;95702.81;;;-0.24;100.00
62634;BME280;48704;50.534;6.442;2023-01-30T02:10:40;95709.84;;;-0.23;100.00
62634;BME280;48704;50.534;6.442;2023-01-30T02:13:07;95741.16;;;-0.24;100.00
62634;BME280;48704;50.534;6.442;2023-01-30T02:15:32;95706.31;;;-0.20;100.00
62634;BME280;48704;50.534;6.442;2023-01-30T02:17:58;95731.69;;;-0.16;100.00
62634;BME280;48704;50.534;6.442;2023-01-30T02:20:29;95714.50;;;-0.16;100.00
62634;BME280;48704;50.534;6.442;2023-01-30T02:25:58;95723.06;;;-0.11;100.00
62634;BME280;48704;50.534;6.442;2023-01-30T02:28:40;95723.84;;;-0.14;100.00
62634;BME280;48704;50.534;6.442;2023-01-30T02:31:34;95743.03;;;-0.14;100.00
62634;BME280;48704;50.534;6.442;2023-01-30T02:40:13;95701.16;;;-0.14;100.00
62634;BME280;48704;50.534;6.442;2023-01-30T02:42:46;95700.41;;;-0.15;100.00
62634;BME280;48704;50.534;6.442;2023-01-30T02:50:58;95674.13;;;-0.09;100.00
62634;BME280;48704;50.534;6.442;2023-01-30T02:53:26;95672.94;;;-0.08;100.00
62634;BME280;48704;50.534;6.442;2023-01-30T02:55:54;95683.50;;;-0.06;100.00
62634;BME280;48704;50.534;6.442;2023-01-30T02:58:21;95679.16;;;-0.04;100.00
62634;BME280;48704;50.534;6.442;2023-01-30T03:03:59;95673.66;;;0.00;100.00
62634;BME280;48704;50.534;6.442;2023-01-30T03:06:37;95672.88;;;-0.01;100.00
62634;BME280;48704;50.534;6.442;2023-01-30T03:12:06;95687.75;;;-0.02;100.00
62634;BME280;48704;50.534;6.442;2023-01-30T03:14:50;95672.88;;;-0.01;100.00
62634;BME280;48704;50.534;6.442;2023-01-30T03:17:18;95690.09;;;0.00;100.00
62634;BME280;48704;50.534;6.442;2023-01-30T03:19:44;95671.31;;;-0.02;100.00
62634;BME280;48704;50.534;6.442;2023-01-30T03:22:10;95668.94;;;0.00;100.00
62634;BME280;48704;50.534;6.442;2023-01-30T03:24:35;95672.44;;;0.01;100.00
62634;BME280;48704;50.534;6.442;2023-01-30T03:27:10;95661.06;;;0.03;100.00
62634;BME280;48704;50.534;6.442;2023-01-30T03:29:36;95645.81;;;0.02;100.00
62634;BME280;48704;50.534;6.442;2023-01-30T03:32:07;95642.38;;;-0.03;100.00
62634;BME280;48704;50.534;6.442;2023-01-30T03:34:33;95640.81;;;-0.04;100.00
62634;BME280;48704;50.534;6.442;2023-01-30T03:36:58;95633.41;;;-0.07;100.00
62634;BME280;48704;50.534;6.442;2023-01-30T03:39:24;95624.38;;;-0.04;100.00
62634;BME280;48704;50.534;6.442;2023-01-30T03:41:51;95622.47;;;-0.07;100.00
62634;BME280;48704;50.534;6.442;2023-01-30T03:44:16;95617.34;;;-0.05;100.00
62634;BME280;48704;50.534;6.442;2023-01-30T03:46:41;95611.09;;;-0.05;100.00
62634;BME280;48704;50.534;6.442;2023-01-30T03:49:07;95615.78;;;-0.06;100.00
62634;BME280;48704;50.534;6.442;2023-01-30T03:51:32;95622.78;;;-0.01;100.00
62634;BME280;48704;50.534;6.442;2023-01-30T03:53:57;95629.38;;;0.02;100.00
62634;BME280;48704;50.534;6.442;2023-01-30T03:56:23;95625.88;;;0.01;100.00
62634;BME280;48704;50.534;6.442;2023-01-30T03:58:48;95610.59;;;0.04;100.00
62634;BME280;48704;50.534;6.442;2023-01-30T04:01:13;95617.25;;;0.03;100.00
62634;BME280;48704;50.534;6.442;2023-01-30T04:03:38;95612.94;;;0.02;100.00
62634;BME280;48704;50.534;6.442;2023-01-30T04:06:04;95610.22;;;0.02;100.00
62634;BME280;48704;50.534;6.442;2023-01-30T04:08:29;95614.06;;;0.08;100.00
62634;BME280;48704;50.534;6.442;2023-01-30T04:10:54;95623.50;;;0.03;100.00
62634;BME280;48704;50.534;6.442;2023-01-30T04:13:20;95611.75;;;0.03;100.00
62634;BME280;48704;50.534;6.442;2023-01-30T04:15:45;95613.31;;;0.04;100.00
62634;BME280;48704;50.534;6.442;2023-01-30T04:18:10;95606.28;;;0.03;100.00
62634;BME280;48704;50.534;6.442;2023-01-30T04:20:36;95619.94;;;0.06;100.00
62634;BME280;48704;50.534;6.442;2023-01-30T04:23:01;95607.84;;;0.04;100.00
62634;BME280;48704;50.534;6.442;2023-01-30T04:25:27;95609.41;;;0.05;100.00
62634;BME280;48704;50.534;6.442;2023-01-30T04:27:52;95604.72;;;0.02;100.00
62634;BME280;48704;50.534;6.442;2023-01-30T04:30:17;95607.03;;;0.07;100.00
62634;BME280;48704;50.534;6.442;2023-01-30T04:32:43;95585.09;;;0.07;100.00
62634;BME280;48704;50.534;6.442;2023-01-30T04:35:08;95590.59;;;0.07;100.00
62634;BME280;48704;50.534;6.442;2023-01-30T04:37:34;95579.22;;;0.08;100.00
62634;BME280;48704;50.534;6.442;2023-01-30T04:39:59;95591.38;;;0.07;100.00
62634;BME280;48704;50.534;6.442;2023-01-30T04:42:24;95586.66;;;0.08;100.00
62634;BME280;48704;50.534;6.442;2023-01-30T04:44:50;95583.94;;;0.08;100.00
62634;BME280;48704;50.534;6.442;2023-01-30T04:47:15;95583.50;;;0.09;100.00
62634;BME280;48704;50.534;6.442;2023-01-30T04:49:41;95605.44;;;0.09;100.00
62634;BME280;48704;50.534;6.442;2023-01-30T04:52:06;95583.56;;;0.06;100.00
62634;BME280;48704;50.534;6.442;2023-01-30T04:54:31;95600.00;;;0.06;100.00
62634;BME280;48704;50.534;6.442;2023-01-30T04:56:57;95581.59;;;0.06;100.00
62634;BME280;48704;50.534;6.442;2023-01-30T04:59:22;95563.19;;;0.07;100.00
62634;BME280;48704;50.534;6.442;2023-01-30T05:01:48;95558.91;;;0.06;100.00
62634;BME280;48704;50.534;6.442;2023-01-30T05:04:13;95563.19;;;0.07;100.00
62634;BME280;48704;50.534;6.442;2023-01-30T05:06:38;95571.00;;;0.08;100.00
62634;BME280;48704;50.534;6.442;2023-01-30T05:09:04;95564.75;;;0.08;100.00
62634;BME280;48704;50.534;6.442;2023-01-30T05:11:30;95566.75;;;0.04;100.00
62634;BME280;48704;50.534;6.442;2023-01-30T05:13:56;95566.31;;;0.09;100.00
62634;BME280;48704;50.534;6.442;2023-01-30T05:16:22;95562.00;;;0.08;100.00
62634;BME280;48704;50.534;6.442;2023-01-30T05:18:48;95566.66;;;0.11;100.00
62634;BME280;48704;50.534;6.442;2023-01-30T05:21:16;95562.75;;;0.12;100.00
62634;BME280;48704;50.534;6.442;2023-01-30T05:23:42;95558.44;;;0.11;100.00
62634;BME280;48704;50.534;6.442;2023-01-30T05:26:08;95551.78;;;0.12;100.00
62634;BME280;48704;50.534;6.442;2023-01-30T05:28:34;95546.31;;;0.12;100.00
62634;BME280;48704;50.534;6.442;2023-01-30T05:31:01;95566.22;;;0.16;100.00
62634;BME280;48704;50.534;6.442;2023-01-30T05:33:26;95556.81;;;0.17;100.00
62634;BME280;48704;50.534;6.442;2023-01-30T05:35:51;95556.81;;;0.17;100.00
62634;BME280;48704;50.534;6.442;2023-01-30T05:38:17;95563.03;;;0.21;100.00
62634;BME280;48704;50.534;6.442;2023-01-30T05:40:42;95565.34;;;0.22;100.00
62634;BME280;48704;50.534;6.442;2023-01-30T05:43:07;95559.09;;;0.22;100.00
62634;BME280;48704;50.534;6.442;2023-01-30T05:45:34;95566.13;;;0.23;100.00
62634;BME280;48704;50.534;6.442;2023-01-30T05:47:59;95588.06;;;0.23;100.00
62634;BME280;48704;50.534;6.442;2023-01-30T05:50:24;95579.06;;;0.22;100.00
62634;BME280;48704;50.534;6.442;2023-01-30T05:52:50;95561.44;;;0.23;100.00
62634;BME280;48704;50.534;6.442;2023-01-30T05:55:15;95572.03;;;0.21;100.00
62634;BME280;48704;50.534;6.442;2023-01-30T05:57:40;95566.13;;;0.23;100.00
62634;BME280;48704;50.534;6.442;2023-01-30T06:00:06;95563.75;;;0.25;100.00
62634;BME280;48704;50.534;6.442;2023-01-30T06:02:32;95569.25;;;0.25;100.00
62634;BME280;48704;50.534;6.442;2023-01-30T06:04:57;95569.25;;;0.25;100.00
62634;BME280;48704;50.534;6.442;2023-01-30T06:07:22;95562.56;;;0.26;100.00
62634;BME280;48704;50.534;6.442;2023-01-30T06:09:47;95567.59;;;0.31;100.00
62634;BME280;48704;50.534;6.442;2023-01-30T06:12:13;95582.50;;;0.30;100.00
62634;BME280;48704;50.534;6.442;2023-01-30T06:14:38;95576.19;;;0.33;100.00
62634;BME280;48704;50.534;6.442;2023-01-30T06:17:03;95575.00;;;0.34;100.00
62634;BME280;48704;50.534;6.442;2023-01-30T06:19:29;95578.81;;;0.40;100.00
62634;BME280;48704;50.534;6.442;2023-01-30T06:21:54;95561.19;;;0.41;100.00
62634;BME280;48704;50.534;6.442;2023-01-30T06:24:19;95569.34;;;0.45;100.00
62634;BME280;48704;50.534;6.442;2023-01-30T06:26:45;95573.69;;;0.42;100.00
62634;BME280;48704;50.534;6.442;2023-01-30T06:29:10;95559.63;;;0.40;100.00
62634;BME280;48704;50.534;6.442;2023-01-30T06:31:35;95564.28;;;0.43;100.00
62634;BME280;48704;50.534;6.442;2023-01-30T06:34:01;95550.94;;;0.45;100.00
62634;BME280;48704;50.534;6.442;2023-01-30T06:36:26;95559.91;;;0.49;100.00
62634;BME280;48704;50.534;6.442;2023-01-30T06:38:51;95566.53;;;0.52;100.00
62634;BME280;48704;50.534;6.442;2023-01-30T06:41:17;95569.31;;;0.48;100.00
62634;BME280;48704;50.534;6.442;2023-01-30T06:43:42;95585.81;;;0.45;100.00
62634;BME280;48704;50.534;6.442;2023-01-30T06:46:07;95597.91;;;0.47;100.00
62634;BME280;48704;50.534;6.442;2023-01-30T06:48:33;95601.03;;;0.49;100.00
62634;BME280;48704;50.534;6.442;2023-01-30T06:50:59;95595.94;;;0.48;100.00
62634;BME280;48704;50.534;6.442;2023-01-30T06:53:24;95577.53;;;0.48;100.00
62634;BME280;48704;50.534;6.442;2023-01-30T06:55:58;95590.88;;;0.46;100.00
62634;BME280;48704;50.534;6.442;2023-01-30T06:58:23;95585.38;;;0.46;100.00
62634;BME280;48704;50.534;6.442;2023-01-30T07:00:49;95579.09;;;0.49;100.00
62634;BME280;48704;50.534;6.442;2023-01-30T07:03:16;95587.31;;;0.49;100.00
62634;BME280;48704;50.534;6.442;2023-01-30T07:05:43;95582.28;;;0.44;100.00
62634;BME280;48704;50.534;6.442;2023-01-30T07:08:09;95600.25;;;0.49;100.00
62634;BME280;48704;50.534;6.442;2023-01-30T07:10:35;95597.09;;;0.50;100.00
62634;BME280;48704;50.534;6.442;2023-01-30T07:13:02;95601.03;;;0.49;100.00
62634;BME280;48704;50.534;6.442;2023-01-30T07:15:27;95593.22;;;0.48;100.00
62634;BME280;48704;50.534;6.442;2023-01-30T07:17:53;95609.25;;;0.49;100.00
62634;BME280;48704;50.534;6.442;2023-01-30T07:20:18;95609.66;;;0.48;100.00
62634;BME280;48704;50.534;6.442;2023-01-30T07:22:49;95604.16;;;0.48;100.00
62634;BME280;48704;50.534;6.442;2023-01-30T07:25:14;95591.25;;;0.48;100.00
62634;BME280;48704;50.534;6.442;2023-01-30T07:27:40;95604.59;;;0.46;100.00
62634;BME280;48704;50.534;6.442;2023-01-30T07:30:06;95615.88;;;0.52;100.00
62634;BME280;48704;50.534;6.442;2023-01-30T07:32:31;95604.53;;;0.50;100.00
62634;BME280;48704;50.534;6.442;2023-01-30T07:34:56;95611.97;;;0.49;100.00
62634;BME280;48704;50.534;6.442;2023-01-30T07:37:22;95610.38;;;0.52;100.00
62634;BME280;48704;50.534;6.442;2023-01-30T07:39:47;95575.88;;;0.54;100.00
62634;BME280;48704;50.534;6.442;2023-01-30T07:42:12;95580.59;;;0.54;100.00
62634;BME280;48704;50.534;6.442;2023-01-30T07:44:37;95581.38;;;0.54;100.00
62634;BME280;48704;50.534;6.442;2023-01-30T07:47:03;95578.59;;;0.58;100.00
62634;BME280;48704;50.534;6.442;2023-01-30T07:49:28;95585.56;;;0.62;100.00
62634;BME280;48704;50.534;6.442;2023-01-30T07:51:53;95573.09;;;0.58;100.00
62634;BME280;48704;50.534;6.442;2023-01-30T07:54:19;95590.69;;;0.60;100.00
62634;BME280;48704;50.534;6.442;2023-01-30T07:56:44;95596.91;;;0.64;100.00
62634;BME280;48704;50.534;6.442;2023-01-30T07:59:10;95594.13;;;0.68;100.00
62634;BME280;48704;50.534;6.442;2023-01-30T08:01:35;95611.72;;;0.71;100.00
62634;BME280;48704;50.534;6.442;2023-01-30T08:04:01;95617.97;;;0.71;100.00
62634;BME280;48704;50.534;6.442;2023-01-30T08:06:26;95614.03;;;0.72;100.00
62634;BME280;48704;50.534;6.442;2023-01-30T08:08:51;95622.56;;;0.78;100.00
62634;BME280;48704;50.534;6.442;2023-01-30T08:11:16;95602.16;;;0.79;100.00
62634;BME280;48704;50.534;6.442;2023-01-30T08:13:42;95609.94;;;0.84;100.00
62634;BME280;48704;50.534;6.442;2023-01-30T08:16:07;95631.84;;;0.87;100.00
62634;BME280;48704;50.534;6.442;2023-01-30T08:18:33;95626.31;;;0.91;100.00
62634;BME280;48704;50.534;6.442;2023-01-30T08:21:00;95625.44;;;0.97;100.00
62634;BME280;48704;50.534;6.442;2023-01-30T08:23:26;95626.19;;;0.98;100.00
62634;BME280;48704;50.534;6.442;2023-01-30T08:25:55;95630.44;;;1.03;100.00
62634;BME280;48704;50.534;6.442;2023-01-30T08:28:21;95622.94;;;1.07;100.00
62634;BME280;48704;50.534;6.442;2023-01-30T08:30:46;95637.81;;;1.09;100.00
62634;BME280;48704;50.534;6.442;2023-01-30T08:33:13;95632.69;;;1.11;100.00
62634;BME280;48704;50.534;6.442;2023-01-30T08:35:39;95625.97;;;1.12;100.00
62634;BME280;48704;50.534;6.442;2023-01-30T08:38:05;95634.09;;;1.19;100.00
62634;BME280;48704;50.534;6.442;2023-01-30T08:40:31;95647.00;;;1.22;100.00
62634;BME280;48704;50.534;6.442;2023-01-30T08:42:56;95641.88;;;1.24;100.00
62634;BME280;48704;50.534;6.442;2023-01-30T08:45:21;95641.41;;;1.29;100.00
62634;BME280;48704;50.534;6.442;2023-01-30T08:47:47;95621.34;;;1.32;100.00
62634;BME280;48704;50.534;6.442;2023-01-30T08:50:12;95624.75;;;1.40;100.00
62634;BME280;48704;50.534;6.442;2023-01-30T08:52:37;95615.38;;;1.38;100.00
62634;BME280;48704;50.534;6.442;2023-01-30T08:55:03;95620.00;;;1.44;100.00
62634;BME280;48704;50.534;6.442;2023-01-30T08:57:28;95624.22;;;1.49;100.00
62634;BME280;48704;50.534;6.442;2023-01-30T08:59:54;95631.50;;;1.59;100.00
62634;BME280;48704;50.534;6.442;2023-01-30T09:02:19;95641.72;;;1.58;100.00
62634;BME280;48704;50.534;6.442;2023-01-30T09:04:44;95651.19;;;1.54;100.00
62634;BME280;48704;50.534;6.442;2023-01-30T09:07:10;95657.28;;;1.65;100.00
62634;BME280;48704;50.534;6.442;2023-01-30T09:09:35;95661.84;;;1.75;100.00
62634;BME280;48704;50.534;6.442;2023-01-30T09:12:00;95646.91;;;1.76;100.00
62634;BME280;48704;50.534;6.442;2023-01-30T09:14:25;95642.13;;;1.80;100.00
62634;BME280;48704;50.534;6.442;2023-01-30T09:16:51;95644.72;;;1.87;100.00
62634;BME280;48704;50.534;6.442;2023-01-30T09:19:26;95638.75;;;1.92;100.00
62634;BME280;48704;50.534;6.442;2023-01-30T09:21:53;95644.19;;;1.96;100.00
62634;BME280;48704;50.534;6.442;2023-01-30T09:24:19;95641.72;;;2.01;100.00
62634;BME280;48704;50.534;6.442;2023-01-30T09:26:44;95645.63;;;2.04;100.00
62634;BME280;48704;50.534;6.442;2023-01-30T09:29:11;95640.91;;;2.05;100.00
62634;BME280;48704;50.534;6.442;2023-01-30T09:31:36;95638.09;;;2.28;100.00
62634;BME280;48704;50.534;6.442;2023-01-30T09:34:02;95656.41;;;2.15;100.00
62634;BME280;48704;50.534;6.442;2023-01-30T09:36:27;95676.56;;;2.08;100.00
62634;BME280;48704;50.534;6.442;2023-01-30T09:38:52;95665.28;;;2.03;100.00
62634;BME280;48704;50.534;6.442;2023-01-30T09:41:33;95670.06;;;1.98;100.00
62634;BME280;48704;50.534;6.442;2023-01-30T09:46:38;95667.91;;;1.86;100.00
62634;BME280;48704;50.534;6.442;2023-01-30T09:49:32;95675.88;;;1.81;100.00
62634;BME280;48704;50.534;6.442;2023-01-30T09:52:23;95673.41;;;1.86;100.00
62634;BME280;48704;50.534;6.442;2023-01-30T09:54:54;95683.06;;;1.94;100.00
62634;BME280;48704;50.534;6.442;2023-01-30T09:57:24;95689.78;;;1.93;100.00
62634;BME280;48704;50.534;6.442;2023-01-30T10:05:05;95688.41;;;1.82;100.00
62634;BME280;48704;50.534;6.442;2023-01-30T10:07:41;95683.69;;;1.82;100.00
62634;BME280;48704;50.534;6.442;2023-01-30T10:12:48;95696.78;;;1.75;100.00
62634;BME280;48704;50.534;6.442;2023-01-30T10:15:37;95678.31;;;1.75;100.00
62634;BME280;48704;50.534;6.442;2023-01-30T10:24:17;95678.91;;;1.86;100.00
62634;BME280;48704;50.534;6.442;2023-01-30T10:26:47;95676.94;;;1.87;100.00
62634;BME280;48704;50.534;6.442;2023-01-30T10:29:35;95676.44;;;2.35;100.00
62634;BME280;48704;50.534;6.442;2023-01-30T10:32:08;95677.25;;;3.11;100.00
62634;BME280;48704;50.534;6.442;2023-01-30T10:34:39;95689.50;;;3.26;100.00
62634;BME280;48704;50.534;6.442;2023-01-30T10:37:09;95688.16;;;3.83;100.00
62634;BME280;48704;50.534;6.442;2023-01-30T10:39:49;95704.50;;;3.58;100.00
62634;BME280;48704;50.534;6.442;2023-01-30T10:42:20;95686.66;;;2.94;100.00
62634;BME280;48704;50.534;6.442;2023-01-30T10:44:48;95689.69;;;3.52;100.00
62634;BME280;48704;50.534;6.442;2023-01-30T10:50:10;95692.28;;;3.75;100.00
62634;BME280;48704;50.534;6.442;2023-01-30T10:52:59;95708.16;;;3.71;100.00
62634;BME280;48704;50.534;6.442;2023-01-30T10:55:42;95688.00;;;2.86;100.00
62634;BME280;48704;50.534;6.442;2023-01-30T11:01:06;95658.25;;;2.41;100.00
62634;BME280;48704;50.534;6.442;2023-01-30T11:03:46;95673.22;;;2.40;100.00
62634;BME280;48704;50.534;6.442;2023-01-30T11:06:15;95670.09;;;2.38;100.00
62634;BME280;48704;50.534;6.442;2023-01-30T11:08:41;95691.72;;;2.59;100.00
62634;BME280;48704;50.534;6.442;2023-01-30T11:11:34;95673.91;;;2.44;100.00
62634;BME280;48704;50.534;6.442;2023-01-30T11:14:08;95707.53;;;2.32;100.00
62634;BME280;48704;50.534;6.442;2023-01-30T11:16:43;95703.50;;;2.17;100.00
62634;BME280;48704;50.534;6.442;2023-01-30T11:19:10;95689.97;;;2.26;100.00
62634;BME280;48704;50.534;6.442;2023-01-30T11:21:36;95689.13;;;2.29;100.00
62634;BME280;48704;50.534;6.442;2023-01-30T11:24:16;95699.94;;;2.40;100.00
62634;BME280;48704;50.534;6.442;2023-01-30T11:26:41;95695.72;;;2.75;100.00
62634;BME280;48704;50.534;6.442;2023-01-30T11:29:33;95691.06;;;2.72;100.00
62634;BME280;48704;50.534;6.442;2023-01-30T11:32:09;95677.03;;;2.46;100.00
62634;BME280;48704;50.534;6.442;2023-01-30T11:34:36;95690.47;;;2.21;100.00
62634;BME280;48704;50.534;6.442;2023-01-30T11:37:12;95685.47;;;2.16;100.00
62634;BME280;48704;50.534;6.442;2023-01-30T11:39:47;95693.41;;;2.10;100.00
62634;BME280;48704;50.534;6.442;2023-01-30T11:42:17;95682.72;;;2.16;100.00
62634;BME280;48704;50.534;6.442;2023-01-30T11:44:43;95685.22;;;2.07;100.00
62634;BME280;48704;50.534;6.442;2023-01-30T11:47:16;95693.34;;;2.14;100.00
62634;BME280;48704;50.534;6.442;2023-01-30T11:49:47;95699.34;;;2.09;100.00
62634;BME280;48704;50.534;6.442;2023-01-30T11:52:18;95686.06;;;2.04;100.00
62634;BME280;48704;50.534;6.442;2023-01-30T11:54:46;95696.88;;;2.34;100.00
62634;BME280;48704;50.534;6.442;2023-01-30T11:57:14;95689.78;;;2.37;100.00
62634;BME280;48704;50.534;6.442;2023-01-30T11:59:44;95693.84;;;2.28;100.00
62634;BME280;48704;50.534;6.442;2023-01-30T12:02:14;95689.09;;;2.52;100.00
62634;BME280;48704;50.534;6.442;2023-01-30T12:04:44;95692.63;;;2.53;100.00
62634;BME280;48704;50.534;6.442;2023-01-30T12:07:23;95711.41;;;2.34;100.00
62634;BME280;48704;50.534;6.442;2023-01-30T12:09:50;95699.94;;;2.40;100.00
62634;BME280;48704;50.534;6.442;2023-01-30T12:15:13;95684.50;;;2.65;100.00
62634;BME280;48704;50.534;6.442;2023-01-30T12:21:07;95688.56;;;2.18;100.00
62634;BME280;48704;50.534;6.442;2023-01-30T12:23:41;95695.88;;;2.24;100.00
62634;BME280;48704;50.534;6.442;2023-01-30T12:26:16;95692.03;;;2.22;100.00
62634;BME280;48704;50.534;6.442;2023-01-30T12:28:46;95695.75;;;2.12;100.00
62634;BME280;48704;50.534;6.442;2023-01-30T12:31:47;95704.59;;;1.99;100.00
62634;BME280;48704;50.534;6.442;2023-01-30T12:34:14;95685.53;;;2.12;100.00
62634;BME280;48704;50.534;6.442;2023-01-30T12:39:45;95678.28;;;2.22;100.00
62634;BME280;48704;50.534;6.442;2023-01-30T12:42:32;95678.97;;;2.26;100.00
62634;BME280;48704;50.534;6.442;2023-01-30T12:45:20;95687.72;;;2.21;100.00
62634;BME280;48704;50.534;6.442;2023-01-30T12:50:59;95693.34;;;2.14;100.00
62634;BME280;48704;50.534;6.442;2023-01-30T12:59:35;95698.84;;;2.14;100.00
62634;BME280;48704;50.534;6.442;2023-01-30T13:02:23;95695.81;;;2.08;100.00
62634;BME280;48704;50.534;6.442;2023-01-30T13:07:41;95715.47;;;2.07;100.00
62634;BME280;48704;50.534;6.442;2023-01-30T13:12:56;95720.31;;;1.99;100.00
62634;BME280;48704;50.534;6.442;2023-01-30T13:16:21;95726.63;;;1.96;100.00
62634;BME280;48704;50.534;6.442;2023-01-30T13:18:25;95728.31;;;1.90;100.00
62634;BME280;48704;50.534;6.442;2023-01-30T13:21:03;95714.88;;;1.95;100.00
62634;BME280;48704;50.534;6.442;2023-01-30T13:26:13;95729.22;;;1.83;100.00
62634;BME280;48704;50.534;6.442;2023-01-30T13:28:47;95725.75;;;1.79;100.00
62634;BME280;48704;50.534;6.442;2023-01-30T13:31:17;95731.00;;;1.70;100.00
62634;BME280;48704;50.534;6.442;2023-01-30T13:33:46;95744.38;;;1.68;100.00
62634;BME280;48704;50.534;6.442;2023-01-30T13:36:16;95739.91;;;1.51;100.00
62634;BME280;48704;50.534;6.442;2023-01-30T13:41:15;95727.78;;;1.21;100.00
62634;BME280;48704;50.534;6.442;2023-01-30T13:43:45;95719.09;;;1.26;100.00
62634;BME280;48704;50.534;6.442;2023-01-30T13:46:17;95757.09;;;1.28;100.00
62634;BME280;48704;50.534;6.442;2023-01-30T13:49:14;95751.97;;;1.30;100.00
62634;BME280;48704;50.534;6.442;2023-01-30T13:51:46;95752.31;;;1.36;100.00
62634;BME280;48704;50.534;6.442;2023-01-30T13:57:00;95753.63;;;1.51;100.00
62634;BME280;48704;50.534;6.442;2023-01-30T13:59:46;95757.72;;;1.66;100.00
62634;BME280;48704;50.534;6.442;2023-01-30T14:02:17;95762.41;;;1.69;100.00
62634;BME280;48704;50.534;6.442;2023-01-30T14:04:45;95762.13;;;1.60;100.00
62634;BME280;48704;50.534;6.442;2023-01-30T14:09:36;95774.38;;;1.82;100.00
62634;BME280;48704;50.534;6.442;2023-01-30T14:12:02;95776.34;;;1.82;100.00
62634;BME280;48704;50.534;6.442;2023-01-30T14:14:34;95766.22;;;1.75;100.00
62634;BME280;48704;50.534;6.442;2023-01-30T14:17:13;95787.03;;;1.99;100.00
62634;BME280;48704;50.534;6.442;2023-01-30T14:19:47;95790.44;;;2.07;100.00
62634;BME280;48704;50.534;6.442;2023-01-30T14:22:49;95791.56;;;1.86;100.00
62634;BME280;48704;50.534;6.442;2023-01-30T14:27:48;95789.53;;;1.90;100.00
62634;BME280;48704;50.534;6.442;2023-01-30T14:30:57;95793.47;;;1.89;100.00
62634;BME280;48704;50.534;6.442;2023-01-30T14:38:24;95810.19;;;1.75;100.00